createdAt,value
2022-11-12T00:01:42.924Z,7.95
2022-11-12T00:06:44.467Z,7.86
2022-11-12T00:11:45.932Z,7.79
2022-11-12T00:16:47.404Z,7.77
2022-11-12T00:21:48.903Z,7.72
2022-11-12T00:26:50.399Z,7.66
2022-11-12T00:31:51.867Z,7.64
2022-11-12T00:36:53.306Z,7.63
2022-11-12T00:41:55.167Z,7.62
2022-11-12T00:46:57.009Z,7.62
2022-11-12T00:51:58.477Z,7.53
2022-11-12T00:57:00.549Z,7.44
2022-11-12T01:02:02.069Z,7.39
2022-11-12T01:07:03.579Z,7.34
2022-11-12T01:12:05.125Z,7.27
2022-11-12T01:17:06.594Z,7.16
2022-11-12T01:22:08.077Z,7.12
2022-11-12T01:27:09.543Z,7.16
2022-11-12T01:32:11.002Z,7.28
2022-11-12T01:37:12.519Z,7.37
2022-11-12T01:42:13.992Z,7.48
2022-11-12T01:47:29.222Z,7.56
2022-11-12T01:52:56.728Z,7.79
2022-11-12T01:58:04.582Z,7.97
2022-11-12T02:03:11.561Z,8.09
2022-11-12T02:08:13.715Z,8.20
2022-11-12T02:13:34.044Z,8.34
2022-11-12T02:18:35.546Z,8.46
2022-11-12T02:23:37.591Z,8.53
2022-11-12T02:28:39.059Z,8.61
2022-11-12T02:33:41.125Z,8.64
2022-11-12T02:38:42.630Z,8.71
2022-11-12T02:49:09.076Z,8.79
2022-11-12T02:54:10.906Z,8.81
2022-11-12T02:59:12.383Z,8.87
2022-11-12T03:04:13.914Z,8.86
2022-11-12T03:09:15.798Z,8.87
2022-11-12T03:14:17.260Z,8.91
2022-11-12T03:19:18.736Z,8.91
2022-11-12T03:24:20.240Z,8.92
2022-11-12T03:29:21.704Z,8.91
2022-11-12T03:34:23.169Z,8.91
2022-11-12T03:39:24.651Z,8.93
2022-11-12T03:44:26.108Z,8.91
2022-11-12T03:49:27.576Z,8.89
2022-11-12T03:54:29.041Z,8.88
2022-11-12T03:59:30.489Z,8.81
2022-11-12T04:04:51.926Z,8.74
2022-11-12T04:09:53.388Z,8.69
2022-11-12T04:14:54.867Z,8.60
2022-11-12T04:20:14.953Z,8.57
2022-11-12T04:25:35.264Z,8.50
2022-11-12T04:30:36.720Z,8.45
2022-11-12T04:35:38.180Z,8.38
2022-11-12T04:40:57.941Z,8.34
2022-11-12T04:46:00.696Z,8.35
2022-11-12T04:51:27.878Z,8.36
2022-11-12T04:56:29.342Z,8.34
2022-11-12T05:01:30.862Z,8.28
2022-11-12T05:06:50.781Z,8.24
2022-11-12T05:11:53.359Z,8.21
2022-11-12T05:16:54.852Z,8.19
2022-11-12T05:22:05.731Z,8.15
2022-11-12T05:27:14.401Z,8.19
2022-11-12T05:32:16.891Z,8.19
2022-11-12T05:37:18.413Z,8.14
2022-11-12T05:42:19.877Z,8.12
2022-11-12T05:47:21.365Z,8.12
2022-11-12T05:52:22.864Z,8.12
2022-11-12T05:57:27.339Z,8.07
2022-11-12T06:02:28.853Z,8.07
2022-11-12T06:07:30.377Z,8.05
2022-11-12T06:12:31.853Z,8.06
2022-11-12T06:17:33.349Z,8.05
2022-11-12T06:22:34.961Z,7.99
2022-11-12T06:27:37.031Z,8.05
2022-11-12T06:32:38.481Z,8.10
2022-11-12T06:37:39.930Z,8.07
2022-11-12T06:42:41.433Z,8.08
2022-11-12T06:47:42.893Z,8.09
2022-11-12T06:52:44.370Z,8.11
2022-11-12T06:57:51.037Z,8.11
2022-11-12T07:02:52.507Z,8.09
2022-11-12T07:07:54.456Z,8.01
2022-11-12T07:12:55.945Z,8.12
2022-11-12T07:17:57.416Z,8.11
2022-11-12T07:23:02.152Z,8.15
2022-11-12T07:28:03.778Z,8.20
2022-11-12T07:33:05.239Z,8.18
2022-11-12T07:38:06.711Z,8.22
2022-11-12T07:43:08.179Z,8.22
2022-11-12T07:48:09.657Z,8.27
2022-11-12T07:53:11.121Z,8.29
2022-11-12T07:58:12.606Z,8.32
2022-11-12T08:03:14.056Z,8.32
2022-11-12T08:08:15.833Z,8.39
2022-11-12T08:13:17.322Z,8.42
2022-11-12T08:18:18.761Z,8.47
2022-11-12T08:23:20.212Z,8.47
2022-11-12T08:28:21.697Z,8.49
2022-11-12T08:33:23.315Z,8.57
2022-11-12T08:38:25.144Z,8.62
2022-11-12T08:43:26.941Z,8.69
2022-11-12T08:48:29.736Z,8.78
2022-11-12T08:53:31.802Z,8.78
2022-11-12T08:58:33.311Z,8.80
2022-11-12T09:03:34.979Z,8.84
2022-11-12T09:08:37.900Z,8.84
2022-11-12T09:13:39.485Z,8.83
2022-11-12T09:18:41.005Z,8.80
2022-11-12T09:23:42.452Z,8.81
2022-11-12T09:28:43.909Z,8.83
2022-11-12T09:33:45.377Z,8.85
2022-11-12T09:38:46.906Z,8.84
2022-11-12T09:43:53.970Z,8.87
2022-11-12T09:49:06.381Z,8.88
2022-11-12T09:54:19.689Z,8.94
2022-11-12T09:59:22.696Z,8.95
2022-11-12T10:04:42.232Z,9.04
2022-11-12T10:09:55.777Z,9.09
2022-11-12T10:15:29.918Z,9.09
2022-11-12T10:20:42.958Z,9.05
2022-11-12T10:25:47.575Z,9.08
2022-11-12T10:30:49.057Z,9.02
2022-11-12T10:35:52.770Z,8.97
2022-11-12T10:40:54.312Z,8.89
2022-11-12T10:46:18.357Z,8.87
2022-11-12T10:51:26.908Z,8.85
2022-11-12T10:56:32.427Z,8.67
2022-11-12T11:01:35.904Z,8.60
2022-11-12T11:06:37.820Z,8.68
2022-11-12T11:11:49.732Z,8.72
2022-11-12T11:17:08.299Z,8.87
2022-11-12T11:22:27.698Z,8.76
2022-11-12T11:27:29.124Z,8.74
2022-11-12T11:32:52.469Z,8.83
2022-11-12T11:38:31.401Z,8.99
2022-11-12T11:43:42.961Z,9.10
2022-11-12T11:48:56.996Z,9.14
2022-11-12T11:53:58.442Z,9.19
2022-11-12T11:59:13.482Z,9.13
2022-11-12T12:04:45.471Z,9.12
2022-11-12T12:10:09.842Z,9.14
2022-11-12T12:15:36.311Z,9.13
2022-11-12T12:21:04.423Z,9.21
2022-11-12T12:26:14.299Z,9.26
2022-11-12T12:31:20.882Z,9.30
2022-11-12T12:36:30.772Z,9.38
2022-11-12T12:41:44.749Z,9.39
2022-11-12T12:46:59.168Z,9.42
2022-11-12T12:52:00.792Z,9.46
2022-11-12T12:57:25.637Z,9.47
2022-11-12T13:02:27.121Z,9.53
2022-11-12T13:07:45.590Z,9.60
2022-11-12T13:13:19.339Z,9.62
2022-11-12T13:18:39.640Z,9.67
2022-11-12T13:24:08.787Z,9.68
2022-11-12T13:29:28.674Z,9.65
2022-11-12T13:34:33.538Z,9.56
2022-11-12T13:39:36.302Z,9.71
2022-11-12T13:44:37.851Z,9.79
2022-11-12T13:49:39.415Z,9.74
2022-11-12T13:54:41.068Z,9.73
2022-11-12T13:59:42.593Z,9.80
2022-11-12T14:04:44.253Z,9.93
2022-11-12T14:10:04.619Z,10.07
2022-11-12T14:15:40.828Z,10.03
2022-11-12T14:20:42.496Z,10.07
2022-11-12T14:25:48.159Z,10.12
2022-11-12T14:30:49.703Z,10.23
2022-11-12T14:35:52.517Z,10.20
2022-11-12T14:40:56.933Z,10.11
2022-11-12T14:46:01.826Z,10.06
2022-11-12T14:51:09.499Z,10.02
2022-11-12T14:56:15.913Z,10.15
2022-11-12T15:06:55.999Z,10.12
2022-11-12T15:11:58.626Z,10.13
2022-11-12T15:17:00.958Z,10.14
2022-11-12T15:22:04.165Z,9.96
2022-11-12T15:27:33.404Z,10.23
2022-11-12T15:32:34.956Z,10.23
2022-11-12T15:37:42.820Z,10.19
2022-11-12T15:42:46.761Z,10.18
2022-11-12T15:47:48.470Z,10.16
2022-11-12T15:52:50.750Z,10.19
2022-11-12T15:57:53.041Z,10.15
2022-11-12T16:03:05.809Z,10.10
2022-11-12T16:08:08.137Z,10.01
2022-11-12T16:13:31.037Z,9.96
2022-11-12T16:18:32.692Z,9.95
2022-11-12T16:23:34.205Z,10.02
2022-11-12T16:28:36.139Z,10.03
2022-11-12T16:33:37.620Z,10.07
2022-11-12T16:38:39.087Z,10.01
2022-11-12T16:43:40.580Z,10.02
2022-11-12T16:48:42.101Z,9.96
2022-11-12T16:53:43.841Z,9.97
2022-11-12T16:58:45.994Z,9.93
2022-11-12T17:03:48.858Z,9.93
2022-11-12T17:08:54.449Z,9.92
2022-11-12T17:13:55.948Z,9.93
2022-11-12T17:18:59.120Z,9.91
2022-11-12T17:24:00.573Z,9.92
2022-11-12T17:29:07.662Z,9.90
2022-11-12T17:34:09.898Z,9.82
2022-11-12T17:39:12.669Z,9.87
2022-11-12T17:44:18.450Z,9.90
2022-11-12T17:49:19.998Z,9.89
2022-11-12T17:54:21.629Z,9.88
2022-11-12T17:59:23.096Z,9.88
2022-11-12T18:04:26.617Z,9.89
2022-11-12T18:09:31.406Z,9.84
2022-11-12T18:14:32.874Z,9.86
2022-11-12T18:19:34.337Z,9.78
2022-11-12T18:24:35.929Z,9.72
2022-11-12T18:29:37.390Z,9.67
2022-11-12T18:34:44.350Z,9.79
2022-11-12T18:39:45.830Z,9.75
2022-11-12T18:44:47.531Z,9.71
2022-11-12T18:49:49.035Z,9.69
2022-11-12T18:54:50.505Z,9.67
2022-11-12T18:59:54.891Z,9.69
2022-11-12T19:04:56.407Z,9.70
2022-11-12T19:09:57.888Z,9.68
2022-11-12T19:14:59.341Z,9.70
2022-11-12T19:20:00.811Z,9.66
2022-11-12T19:25:03.638Z,9.64
2022-11-12T19:30:06.872Z,9.67
2022-11-12T19:35:08.814Z,9.67
2022-11-12T19:40:11.855Z,9.63
2022-11-12T19:45:13.729Z,9.69
2022-11-12T19:50:15.473Z,9.56
2022-11-12T19:55:17.041Z,9.67
2022-11-12T20:00:18.743Z,9.57
2022-11-12T20:05:20.304Z,9.64
2022-11-12T20:10:22.501Z,9.66
2022-11-12T20:15:24.032Z,9.62
2022-11-12T20:20:25.505Z,9.49
2022-11-12T20:25:26.967Z,9.47
2022-11-12T20:30:28.439Z,9.47
2022-11-12T20:35:29.990Z,9.46
2022-11-12T20:40:32.355Z,9.46
2022-11-12T20:45:35.144Z,9.51
2022-11-12T20:50:36.930Z,9.40
2022-11-12T20:55:39.434Z,9.12
2022-11-12T21:00:40.890Z,8.90
2022-11-12T21:05:42.447Z,8.71
2022-11-12T21:10:49.146Z,8.54
2022-11-12T21:15:51.873Z,8.39
2022-11-12T21:21:06.897Z,8.26
2022-11-12T21:26:13.887Z,8.16
2022-11-12T21:31:27.151Z,8.11
2022-11-12T21:36:30.348Z,8.07
2022-11-12T21:41:32.171Z,8.07
2022-11-12T21:46:35.840Z,8.00
2022-11-12T21:51:37.451Z,7.88
2022-11-12T21:56:40.217Z,7.79
2022-11-12T22:01:43.493Z,7.71
2022-11-12T22:06:45.045Z,7.62
2022-11-12T22:11:46.552Z,7.65
2022-11-12T22:16:48.590Z,7.58
2022-11-12T22:21:50.041Z,7.51
2022-11-12T22:26:51.497Z,7.53
2022-11-12T22:31:52.940Z,7.56
2022-11-12T22:36:54.415Z,7.55
2022-11-12T22:41:55.890Z,7.50
2022-11-12T22:46:57.969Z,7.59
2022-11-12T22:51:59.466Z,7.75
2022-11-12T22:57:00.948Z,7.78
2022-11-12T23:02:02.407Z,7.71
2022-11-12T23:07:04.215Z,7.57
2022-11-12T23:12:05.848Z,7.52
2022-11-12T23:17:07.330Z,7.43
2022-11-12T23:22:08.792Z,7.37
2022-11-12T23:27:10.261Z,7.56
2022-11-12T23:32:11.977Z,7.69
2022-11-12T23:37:13.447Z,7.71
2022-11-12T23:42:14.969Z,7.81
2022-11-12T23:47:16.465Z,7.95
2022-11-12T23:52:19.082Z,8.01
2022-11-12T23:57:20.652Z,8.13
